Time;durP1;ratioP1;P1;durP2;ratioP2;P2;SDS_P1;SDS_P2;PMS_P1;PMS_P2;Temp;Humidity;BMP_temperature;BMP_pressure;BME280_temperature;BME280_humidity;BME280_pressure;Samples;Min_cycle;Max_cycle;Signal;HPM_P1;HPM_P2
2021/04/16 00:00:33;;;;;;;2.45;1.70;;;;;;;;;;5064325;28;20202;-85
2021/04/16 00:03:00;;;;;;;1.33;1.23;;;;;;;;;;5063106;28;20210;-84
2021/04/16 00:05:28;;;;;;;1.27;1.23;;;;;;;;;;5071295;28;20232;-85
2021/04/16 00:07:55;;;;;;;1.60;1.35;;;;;;;;;;5063005;28;20185;-84
2021/04/16 00:10:28;;;;;;;2.10;2.00;;;;;;;;;;5065254;28;20246;-85
2021/04/16 00:12:55;;;;;;;2.45;1.90;;;;;;;;;;5060043;28;20218;-84
2021/04/16 00:15:26;;;;;;;2.15;1.58;;;;;;;;;;5056994;28;20205;-84
2021/04/16 00:17:54;;;;;;;2.70;1.75;;;;;;;;;;5062224;28;20548;-84
2021/04/16 00:20:26;;;;;;;2.88;2.25;;;;;;;;;;5067226;28;20209;-84
2021/04/16 00:22:55;;;;;;;3.08;1.50;;;;;;;;;;5063638;28;20217;-84
2021/04/16 00:25:29;;;;;;;2.08;1.70;;;;;;;;;;5062933;28;20202;-84
2021/04/16 00:27:56;;;;;;;1.73;1.63;;;;;;;;;;5061721;28;20182;-84
2021/04/16 00:30:26;;;;;;;1.80;1.35;;;;;;;;;;5063209;28;20555;-84
2021/04/16 00:32:53;;;;;;;1.58;1.48;;;;;;;;;;5063938;28;20225;-83
2021/04/16 00:35:21;;;;;;;1.77;1.67;;;;;;;;;;5063754;28;20194;-84
2021/04/16 00:37:48;;;;;;;1.50;1.40;;;;;;;;;;5062455;28;20198;-84
2021/04/16 00:40:18;;;;;;;1.90;1.77;;;;;;;;;;5068646;28;20204;-83
2021/04/16 00:42:53;;;;;;;1.50;1.40;;;;;;;;;;5071944;28;20226;-83
2021/04/16 00:45:22;;;;;;;2.15;1.92;;;;;;;;;;5062221;28;20243;-84
2021/04/16 00:47:49;;;;;;;1.67;1.58;;;;;;;;;;5064565;28;20181;-84
2021/04/16 00:50:22;;;;;;;3.13;1.42;;;;;;;;;;5062772;28;20683;-84
2021/04/16 00:52:49;;;;;;;1.58;1.30;;;;;;;;;;5064010;28;20304;-84
2021/04/16 00:55:16;;;;;;;1.83;1.20;;;;;;;;;;5064087;28;20189;-84
2021/04/16 00:57:43;;;;;;;2.13;1.70;;;;;;;;;;5063806;28;20194;-84
2021/04/16 01:00:16;;;;;;;1.45;1.35;;;;;;;;;;5061605;28;20203;-83
2021/04/16 01:02:43;;;;;;;1.52;1.42;;;;;;;;;;5063788;28;20216;-84
2021/04/16 01:05:11;;;;;;;2.00;1.90;;;;;;;;;;5061976;28;20663;-84
2021/04/16 01:07:39;;;;;;;1.85;1.52;;;;;;;;;;5063063;28;20196;-83
2021/04/16 01:10:08;;;;;;;1.55;1.30;;;;;;;;;;5064036;28;20233;-83
2021/04/16 01:12:36;;;;;;;1.90;1.35;;;;;;;;;;5062570;28;20650;-83
2021/04/16 01:15:16;;;;;;;1.33;1.23;;;;;;;;;;5061700;28;20189;-84
2021/04/16 01:17:45;;;;;;;1.45;1.35;;;;;;;;;;5063679;28;20715;-84
2021/04/16 01:20:18;;;;;;;1.90;1.02;;;;;;;;;;5062295;28;20239;-84
2021/04/16 01:22:56;;;;;;;1.50;1.40;;;;;;;;;;5063849;28;20224;-84
2021/04/16 01:25:25;;;;;;;1.92;1.42;;;;;;;;;;5063034;28;20201;-83
2021/04/16 01:27:52;;;;;;;2.33;2.22;;;;;;;;;;5061837;28;20190;-84
2021/04/16 01:30:23;;;;;;;3.53;2.17;;;;;;;;;;5064656;28;20283;-84
2021/04/16 01:32:51;;;;;;;1.20;1.10;;;;;;;;;;5073774;28;20221;-84
2021/04/16 01:35:23;;;;;;;1.75;1.60;;;;;;;;;;5073476;28;20550;-84
2021/04/16 01:37:50;;;;;;;1.83;1.73;;;;;;;;;;5066888;28;20671;-84
2021/04/16 01:40:18;;;;;;;2.22;2.03;;;;;;;;;;5061801;28;20198;-84
2021/04/16 01:42:47;;;;;;;2.83;2.47;;;;;;;;;;5064097;28;20213;-84
2021/04/16 01:45:21;;;;;;;2.40;2.20;;;;;;;;;;5060856;28;20773;-84
2021/04/16 01:47:54;;;;;;;2.65;1.90;;;;;;;;;;5060897;28;20590;-83
2021/04/16 01:50:21;;;;;;;2.65;1.52;;;;;;;;;;5062731;28;20206;-83
2021/04/16 01:52:48;;;;;;;1.75;1.65;;;;;;;;;;5063472;28;20244;-83
2021/04/16 01:55:17;;;;;;;2.25;1.98;;;;;;;;;;5060422;28;20222;-84
2021/04/16 01:57:48;;;;;;;1.98;1.60;;;;;;;;;;5062666;28;20197;-84
2021/04/16 02:00:19;;;;;;;1.40;1.30;;;;;;;;;;5061450;28;20198;-83
2021/04/16 02:02:46;;;;;;;1.40;1.30;;;;;;;;;;5063728;28;20225;-83
2021/04/16 02:05:14;;;;;;;1.60;1.50;;;;;;;;;;5060256;28;20198;-84
2021/04/16 02:07:41;;;;;;;1.70;1.60;;;;;;;;;;5073013;28;20528;-83
2021/04/16 02:10:10;;;;;;;2.13;1.58;;;;;;;;;;5073198;28;20205;-83
2021/04/16 02:12:37;;;;;;;1.50;1.40;;;;;;;;;;5073365;28;20221;-83
2021/04/16 02:15:07;;;;;;;1.73;1.23;;;;;;;;;;5072277;28;20193;-83
2021/04/16 02:17:34;;;;;;;3.03;1.20;;;;;;;;;;5066598;28;20198;-84
2021/04/16 02:20:13;;;;;;;1.50;1.40;;;;;;;;;;5060852;28;20204;-84
2021/04/16 02:22:40;;;;;;;1.33;1.23;;;;;;;;;;5062257;28;20221;-83
2021/04/16 02:25:08;;;;;;;1.40;1.30;;;;;;;;;;5060550;28;20255;-84
2021/04/16 02:27:38;;;;;;;1.75;1.65;;;;;;;;;;5059785;28;20197;-84
2021/04/16 02:30:09;;;;;;;0.98;0.98;;;;;;;;;;5060476;28;20434;-84
2021/04/16 02:32:36;;;;;;;1.25;1.15;;;;;;;;;;5053029;28;20388;-83
2021/04/16 02:35:07;;;;;;;2.53;1.98;;;;;;;;;;5052270;28;20205;-84
2021/04/16 02:37:34;;;;;;;0.80;0.80;;;;;;;;;;5052824;28;20186;-83
2021/04/16 02:40:01;;;;;;;1.10;1.10;;;;;;;;;;5052517;28;20198;-84
2021/04/16 02:42:28;;;;;;;1.30;1.20;;;;;;;;;;5052496;28;20231;-84
2021/04/16 02:44:54;;;;;;;0.88;0.88;;;;;;;;;;5051958;28;20237;-84
2021/04/16 02:47:22;;;;;;;1.00;0.88;;;;;;;;;;5051886;28;20684;-84
2021/04/16 02:49:49;;;;;;;0.85;0.85;;;;;;;;;;5052057;28;20330;-84
2021/04/16 02:52:16;;;;;;;1.10;1.00;;;;;;;;;;5052140;28;20232;-84
2021/04/16 02:54:43;;;;;;;0.90;0.90;;;;;;;;;;5052422;28;20729;-83
2021/04/16 02:57:10;;;;;;;1.02;0.90;;;;;;;;;;5051801;28;20213;-84
2021/04/16 02:59:37;;;;;;;1.10;1.00;;;;;;;;;;5051938;28;20719;-84
2021/04/16 03:02:05;;;;;;;1.08;0.98;;;;;;;;;;5052217;28;20236;-83
2021/04/16 03:04:33;;;;;;;1.08;1.00;;;;;;;;;;5052217;28;20202;-84
2021/04/16 03:07:00;;;;;;;1.00;1.00;;;;;;;;;;5051729;28;20205;-84
2021/04/16 03:09:27;;;;;;;1.20;1.13;;;;;;;;;;5052083;28;20217;-84
2021/04/16 03:11:54;;;;;;;1.40;1.30;;;;;;;;;;5051943;28;20230;-83
2021/04/16 03:14:21;;;;;;;2.08;1.02;;;;;;;;;;5051809;28;20684;-84
2021/04/16 03:16:49;;;;;;;1.23;1.13;;;;;;;;;;5052157;28;20631;-84
2021/04/16 03:19:16;;;;;;;0.90;0.90;;;;;;;;;;5052180;28;20202;-84
2021/04/16 03:21:44;;;;;;;0.90;0.90;;;;;;;;;;5052494;28;20221;-83
2021/04/16 03:24:12;;;;;;;2.60;0.90;;;;;;;;;;5052146;28;20228;-83
2021/04/16 03:26:38;;;;;;;1.27;1.17;;;;;;;;;;5053283;28;20202;-83
2021/04/16 03:29:06;;;;;;;0.90;0.90;;;;;;;;;;5055947;28;20206;-84
2021/04/16 03:31:34;;;;;;;1.75;1.00;;;;;;;;;;5055885;28;20709;-84
2021/04/16 03:34:01;;;;;;;1.02;0.98;;;;;;;;;;5055949;28;20209;-84
2021/04/16 03:36:29;;;;;;;0.98;0.98;;;;;;;;;;5055623;28;20201;-84
2021/04/16 03:38:58;;;;;;;0.90;0.90;;;;;;;;;;5055927;28;20680;-83
2021/04/16 03:41:25;;;;;;;1.05;0.90;;;;;;;;;;5055522;28;20237;-83
2021/04/16 03:43:51;;;;;;;0.73;0.73;;;;;;;;;;5055146;28;20237;-84
2021/04/16 03:46:18;;;;;;;1.13;1.00;;;;;;;;;;5055202;28;20194;-84
2021/04/16 03:48:45;;;;;;;1.00;0.90;;;;;;;;;;5055752;28;20201;-84
2021/04/16 03:51:13;;;;;;;0.70;0.70;;;;;;;;;;5055942;28;20233;-83
2021/04/16 03:53:42;;;;;;;1.10;1.10;;;;;;;;;;5055849;28;20202;-84
2021/04/16 03:56:11;;;;;;;0.95;0.95;;;;;;;;;;5055151;28;20376;-83
2021/04/16 03:58:39;;;;;;;0.90;0.90;;;;;;;;;;5055667;28;20206;-84
2021/04/16 04:01:08;;;;;;;0.65;0.65;;;;;;;;;;5055366;28;20225;-84
2021/04/16 04:03:36;;;;;;;1.50;1.40;;;;;;;;;;5055462;28;20647;-84
2021/04/16 04:06:03;;;;;;;0.90;0.90;;;;;;;;;;5055287;28;20201;-84
2021/04/16 04:08:30;;;;;;;1.45;1.35;;;;;;;;;;5055194;28;20683;-83
2021/04/16 04:10:57;;;;;;;1.27;1.17;;;;;;;;;;5054834;28;20221;-84
2021/04/16 04:13:25;;;;;;;1.30;1.23;;;;;;;;;;5055131;28;20668;-83
2021/04/16 04:15:52;;;;;;;1.33;1.30;;;;;;;;;;5055298;28;20206;-84
2021/04/16 04:18:18;;;;;;;1.40;1.30;;;;;;;;;;5056255;28;20206;-85
2021/04/16 04:20:45;;;;;;;1.40;1.30;;;;;;;;;;5056083;28;20202;-85
2021/04/16 04:23:12;;;;;;;1.27;1.17;;;;;;;;;;5056389;28;20267;-85
2021/04/16 04:25:39;;;;;;;1.20;1.10;;;;;;;;;;5055800;28;20197;-85
2021/04/16 04:28:07;;;;;;;1.10;1.00;;;;;;;;;;5056406;28;20197;-85
2021/04/16 04:30:37;;;;;;;1.02;1.02;;;;;;;;;;5056113;28;20225;-85
2021/04/16 04:33:05;;;;;;;1.08;1.08;;;;;;;;;;5056026;28;20214;-85
2021/04/16 04:35:32;;;;;;;0.85;0.85;;;;;;;;;;5056095;28;20228;-85
2021/04/16 04:37:59;;;;;;;2.38;1.92;;;;;;;;;;5055670;28;20254;-85
2021/04/16 04:40:27;;;;;;;1.38;1.20;;;;;;;;;;5056407;28;20198;-84
2021/04/16 04:42:54;;;;;;;3.25;1.48;;;;;;;;;;5056579;28;20573;-85
2021/04/16 04:45:22;;;;;;;1.50;1.40;;;;;;;;;;5055439;28;20660;-85
2021/04/16 04:47:50;;;;;;;2.00;1.80;;;;;;;;;;5055555;28;20193;-84
2021/04/16 04:50:18;;;;;;;1.42;1.33;;;;;;;;;;5056729;28;20274;-85
2021/04/16 04:52:46;;;;;;;3.28;1.65;;;;;;;;;;5057215;28;20232;-85
2021/04/16 04:55:17;;;;;;;1.95;1.85;;;;;;;;;;5057556;28;20615;-84
2021/04/16 04:57:44;;;;;;;2.08;1.45;;;;;;;;;;5056868;28;20201;-85
2021/04/16 05:00:14;;;;;;;1.67;1.50;;;;;;;;;;5056780;28;20194;-85
2021/04/16 05:02:41;;;;;;;2.40;2.20;;;;;;;;;;5056710;28;20227;-85
2021/04/16 05:05:11;;;;;;;1.60;1.50;;;;;;;;;;5055204;28;20312;-85
2021/04/16 05:07:38;;;;;;;1.80;1.27;;;;;;;;;;5054776;28;20276;-85
2021/04/16 05:10:07;;;;;;;1.75;1.65;;;;;;;;;;5055777;28;20656;-85
2021/04/16 05:12:35;;;;;;;1.70;1.45;;;;;;;;;;5055036;28;20621;-85
2021/04/16 05:15:02;;;;;;;1.42;1.33;;;;;;;;;;5055069;28;20193;-85
2021/04/16 05:17:29;;;;;;;2.13;1.88;;;;;;;;;;5055145;28;20206;-86
2021/04/16 05:19:56;;;;;;;5.93;2.30;;;;;;;;;;5055325;28;20255;-84
2021/04/16 05:22:23;;;;;;;2.92;1.70;;;;;;;;;;5054297;28;20282;-84
2021/04/16 05:24:50;;;;;;;1.88;1.77;;;;;;;;;;5054644;28;20212;-84
2021/04/16 05:27:21;;;;;;;2.42;2.17;;;;;;;;;;5053746;28;20745;-85
2021/04/16 05:29:48;;;;;;;2.40;1.45;;;;;;;;;;5054256;28;20656;-85
2021/04/16 05:32:15;;;;;;;1.88;1.77;;;;;;;;;;5054394;28;20309;-85
2021/04/16 05:34:42;;;;;;;4.30;1.70;;;;;;;;;;5054014;28;20206;-86
2021/04/16 05:37:10;;;;;;;1.60;1.50;;;;;;;;;;5054660;28;20668;-86
2021/04/16 05:39:37;;;;;;;2.08;1.88;;;;;;;;;;5054449;28;20205;-86
2021/04/16 05:42:05;;;;;;;2.63;1.55;;;;;;;;;;5054788;28;20279;-86
2021/04/16 05:44:32;;;;;;;2.05;1.95;;;;;;;;;;5053159;28;20237;-86
2021/04/16 05:46:59;;;;;;;2.40;2.20;;;;;;;;;;5054040;28;20683;-85
2021/04/16 05:49:26;;;;;;;2.45;1.98;;;;;;;;;;5053141;28;20685;-86
2021/04/16 05:51:54;;;;;;;2.20;1.88;;;;;;;;;;5054835;28;20232;-86
2021/04/16 05:54:21;;;;;;;3.70;2.33;;;;;;;;;;5054426;28;20266;-86
2021/04/16 05:56:48;;;;;;;3.05;2.72;;;;;;;;;;5053912;28;20205;-85
2021/04/16 05:59:16;;;;;;;1.85;1.75;;;;;;;;;;5054192;28;20206;-86
2021/04/16 06:01:43;;;;;;;2.35;1.95;;;;;;;;;;5053660;28;20231;-86
2021/04/16 06:04:15;;;;;;;2.08;1.88;;;;;;;;;;5054255;28;20668;-86
2021/04/16 06:06:41;;;;;;;2.28;2.10;;;;;;;;;;5053279;28;20215;-85
2021/04/16 06:09:09;;;;;;;2.25;2.05;;;;;;;;;;5054048;28;20692;-86
2021/04/16 06:11:35;;;;;;;2.38;2.17;;;;;;;;;;5054730;28;20225;-85
2021/04/16 06:14:04;;;;;;;3.53;2.17;;;;;;;;;;5054938;28;20206;-85
2021/04/16 06:16:31;;;;;;;2.30;2.10;;;;;;;;;;5053906;28;20204;-85
2021/04/16 06:18:58;;;;;;;2.38;1.50;;;;;;;;;;5053868;28;20201;-85
2021/04/16 06:21:25;;;;;;;2.15;1.80;;;;;;;;;;5054503;28;20696;-85
2021/04/16 06:23:52;;;;;;;1.85;1.75;;;;;;;;;;5054141;28;20259;-86
2021/04/16 06:26:19;;;;;;;1.77;1.67;;;;;;;;;;5054666;28;20202;-85
2021/04/16 06:28:46;;;;;;;2.38;1.83;;;;;;;;;;5055147;28;20255;-86
2021/04/16 06:31:17;;;;;;;3.55;2.17;;;;;;;;;;5053718;28;20228;-85
2021/04/16 06:33:44;;;;;;;2.58;2.00;;;;;;;;;;5053593;28;20194;-86
2021/04/16 06:36:15;;;;;;;3.10;1.98;;;;;;;;;;5052580;28;20205;-85
2021/04/16 06:38:45;;;;;;;2.38;2.17;;;;;;;;;;5051979;28;20237;-85
2021/04/16 06:41:18;;;;;;;2.65;2.13;;;;;;;;;;5051837;28;20218;-84
2021/04/16 06:43:48;;;;;;;1.83;1.73;;;;;;;;;;5052076;28;20236;-85
2021/04/16 06:46:22;;;;;;;3.67;2.05;;;;;;;;;;5051329;28;20802;-85
2021/04/16 06:48:49;;;;;;;2.25;2.03;;;;;;;;;;5051667;28;20207;-85
2021/04/16 06:51:18;;;;;;;3.42;2.17;;;;;;;;;;5052267;28;20707;-85
2021/04/16 06:53:53;;;;;;;2.38;2.17;;;;;;;;;;5052005;28;20668;-85
2021/04/16 06:56:26;;;;;;;4.00;2.20;;;;;;;;;;5051734;28;20209;-85
2021/04/16 06:58:56;;;;;;;2.42;2.22;;;;;;;;;;5052138;28;20212;-85
2021/04/16 07:01:28;;;;;;;2.90;2.03;;;;;;;;;;5054797;28;20590;-86
2021/04/16 07:04:37;;;;;;;1.85;1.75;;;;;;;;;;5055790;28;20258;-85
2021/04/16 07:07:11;;;;;;;2.72;2.30;;;;;;;;;;5055748;28;20208;-85
2021/04/16 07:09:42;;;;;;;3.55;2.53;;;;;;;;;;5055875;28;20247;-85
2021/04/16 07:12:15;;;;;;;4.30;2.90;;;;;;;;;;5055600;28;20262;-85
2021/04/16 07:14:44;;;;;;;2.40;1.95;;;;;;;;;;5055608;28;20297;-85
2021/04/16 07:17:15;;;;;;;3.60;2.75;;;;;;;;;;5055447;28;20541;-85
2021/04/16 07:19:42;;;;;;;8.07;2.20;;;;;;;;;;5055721;28;20197;-85
2021/04/16 07:22:20;;;;;;;3.58;2.30;;;;;;;;;;5055038;28;20213;-85
2021/04/16 07:24:49;;;;;;;2.25;2.05;;;;;;;;;;5055659;28;20198;-85
2021/04/16 07:27:20;;;;;;;2.05;1.95;;;;;;;;;;5055724;28;20198;-85
2021/04/16 07:29:52;;;;;;;2.45;2.25;;;;;;;;;;5055467;28;20198;-85
2021/04/16 07:32:39;;;;;;;2.25;2.05;;;;;;;;;;5055132;28;20771;-85
2021/04/16 07:35:23;;;;;;;4.53;2.33;;;;;;;;;;5055173;28;20229;-87
2021/04/16 07:38:10;;;;;;;3.30;3.00;;;;;;;;;;5055254;28;20201;-85
2021/04/16 07:40:42;;;;;;;2.95;2.75;;;;;;;;;;5055318;28;20739;-85
2021/04/16 07:43:11;;;;;;;2.92;2.67;;;;;;;;;;5054960;28;20645;-85
2021/04/16 07:45:45;;;;;;;3.65;2.47;;;;;;;;;;5054889;28;20197;-85
2021/04/16 07:48:29;;;;;;;3.50;2.20;;;;;;;;;;5054699;28;20686;-85
2021/04/16 07:50:59;;;;;;;2.95;2.50;;;;;;;;;;5055078;28;20262;-86
2021/04/16 07:53:31;;;;;;;2.95;2.65;;;;;;;;;;5055395;28;20564;-85
2021/04/16 07:56:10;;;;;;;2.53;2.33;;;;;;;;;;5054730;28;20207;-85
2021/04/16 07:58:38;;;;;;;2.30;1.95;;;;;;;;;;5055052;28;20216;-86
2021/04/16 08:01:18;;;;;;;2.83;2.53;;;;;;;;;;5055365;28;20201;-87
2021/04/16 08:03:49;;;;;;;2.50;1.92;;;;;;;;;;5055578;28;20231;-86
2021/04/16 08:06:34;;;;;;;4.15;2.10;;;;;;;;;;5055172;28;20206;-86
2021/04/16 08:09:04;;;;;;;2.30;1.90;;;;;;;;;;5055415;28;20202;-86
2021/04/16 08:11:34;;;;;;;4.60;2.38;;;;;;;;;;5054692;28;20697;-86
2021/04/16 08:14:11;;;;;;;2.17;1.95;;;;;;;;;;5055155;28;20178;-86
2021/04/16 08:16:40;;;;;;;2.67;2.10;;;;;;;;;;5054687;28;20204;-86
2021/04/16 08:19:29;;;;;;;1.85;1.75;;;;;;;;;;5055502;28;20278;-86
2021/04/16 08:22:00;;;;;;;3.22;2.92;;;;;;;;;;5055284;28;20218;-87
2021/04/16 08:24:35;;;;;;;2.65;2.15;;;;;;;;;;5055143;28;20252;-85
2021/04/16 08:27:13;;;;;;;2.72;2.28;;;;;;;;;;5054951;28;20200;-87
2021/04/16 08:29:43;;;;;;;3.60;1.95;;;;;;;;;;5055125;28;20207;-86
2021/04/16 08:32:29;;;;;;;2.00;1.80;;;;;;;;;;5055363;28;20241;-86
2021/04/16 08:35:01;;;;;;;1.83;1.73;;;;;;;;;;5054477;28;20664;-86
2021/04/16 08:37:33;;;;;;;2.97;2.67;;;;;;;;;;5055602;28;20205;-86
2021/04/16 08:40:02;;;;;;;4.53;2.30;;;;;;;;;;5055259;28;20660;-86
2021/04/16 08:42:32;;;;;;;2.13;1.75;;;;;;;;;;5054578;28;20222;-86
2021/04/16 08:45:03;;;;;;;2.08;1.75;;;;;;;;;;5054769;28;20225;-86
2021/04/16 08:47:34;;;;;;;3.03;2.45;;;;;;;;;;5055073;28;20202;-86
2021/04/16 08:50:05;;;;;;;2.95;2.67;;;;;;;;;;5055542;28;20198;-86
2021/04/16 08:52:35;;;;;;;3.00;1.90;;;;;;;;;;5054709;28;20230;-86
2021/04/16 08:55:12;;;;;;;1.85;1.75;;;;;;;;;;5054745;28;20576;-86
2021/04/16 08:57:50;;;;;;;2.55;2.17;;;;;;;;;;5054907;28;20688;-86
2021/04/16 09:00:21;;;;;;;2.53;2.28;;;;;;;;;;5054762;28;20664;-86
2021/04/16 09:02:51;;;;;;;2.72;2.17;;;;;;;;;;5055389;28;20221;-86
2021/04/16 09:05:22;;;;;;;4.68;2.90;;;;;;;;;;5054520;28;20558;-86
2021/04/16 09:07:55;;;;;;;3.13;2.25;;;;;;;;;;5054814;28;20197;-87
2021/04/16 09:10:48;;;;;;;2.05;1.95;;;;;;;;;;5054437;28;20201;-86
2021/04/16 09:13:57;;;;;;;1.92;1.80;;;;;;;;;;5035117;28;20235;-86
2021/04/16 09:16:54;;;;;;;2.53;1.92;;;;;;;;;;5034417;28;20659;-86
2021/04/16 09:19:59;;;;;;;3.70;1.90;;;;;;;;;;5054977;28;20209;-87
2021/04/16 09:22:43;;;;;;;3.20;2.38;;;;;;;;;;5054351;28;20407;-86
2021/04/16 09:25:47;;;;;;;5.28;2.08;;;;;;;;;;5052982;28;20251;-86
2021/04/16 09:28:38;;;;;;;1.70;1.60;;;;;;;;;;5054087;28;20201;-86
2021/04/16 09:31:48;;;;;;;2.42;1.92;;;;;;;;;;5053429;28;20556;-86
2021/04/16 09:34:19;;;;;;;2.38;2.13;;;;;;;;;;5052518;28;20413;-87
2021/04/16 09:36:50;;;;;;;1.88;1.70;;;;;;;;;;5052231;28;20209;-86
2021/04/16 09:39:35;;;;;;;1.42;1.25;;;;;;;;;;5053780;28;20326;-86
2021/04/16 09:42:32;;;;;;;1.70;1.58;;;;;;;;;;5053908;28;20629;-86
2021/04/16 09:45:00;;;;;;;4.50;1.80;;;;;;;;;;5053540;28;20229;-86
2021/04/16 09:47:51;;;;;;;2.97;1.73;;;;;;;;;;5053802;28;20239;-85
2021/04/16 09:50:32;;;;;;;1.67;1.42;;;;;;;;;;5053217;28;20198;-86
2021/04/16 09:53:22;;;;;;;1.60;1.40;;;;;;;;;;5053111;28;20680;-86
2021/04/16 09:56:14;;;;;;;1.48;1.38;;;;;;;;;;5053087;28;20229;-86
2021/04/16 09:59:06;;;;;;;1.63;1.52;;;;;;;;;;5053360;28;20722;-85
2021/04/16 10:01:33;;;;;;;3.65;1.70;;;;;;;;;;5053412;28;20216;-86
2021/04/16 10:04:02;;;;;;;2.38;2.17;;;;;;;;;;5054000;28;20205;-86
2021/04/16 10:06:39;;;;;;;2.00;1.50;;;;;;;;;;5053283;28;20194;-86
2021/04/16 10:09:25;;;;;;;2.47;1.73;;;;;;;;;;5053845;28;20683;-86
2021/04/16 10:11:56;;;;;;;1.88;1.42;;;;;;;;;;5052485;28;20252;-86
2021/04/16 10:14:33;;;;;;;1.60;1.50;;;;;;;;;;5053458;28;20202;-86
2021/04/16 10:17:04;;;;;;;2.00;1.80;;;;;;;;;;5053097;28;20193;-86
2021/04/16 10:19:34;;;;;;;1.65;1.55;;;;;;;;;;5052938;28;20292;-86
2021/04/16 10:22:13;;;;;;;3.83;2.20;;;;;;;;;;5052948;28;20214;-86
2021/04/16 12:40:17;;;;;;;2.53;1.98;;;;;;;;;;5052318;28;20723;-85
2021/04/16 12:42:45;;;;;;;2.28;2.08;;;;;;;;;;5052322;28;20253;-85
2021/04/16 12:45:14;;;;;;;2.67;2.22;;;;;;;;;;5053827;28;20248;-85
2021/04/16 12:47:41;;;;;;;2.22;2.03;;;;;;;;;;5054643;28;20546;-85
2021/04/16 12:50:11;;;;;;;3.05;2.03;;;;;;;;;;5061213;28;20711;-85
2021/04/16 12:52:38;;;;;;;3.08;2.75;;;;;;;;;;5061966;28;20209;-85
2021/04/16 12:55:06;;;;;;;2.00;1.90;;;;;;;;;;5062361;28;20250;-86
2021/04/16 12:57:38;;;;;;;3.38;1.65;;;;;;;;;;5061444;28;20656;-86
2021/04/16 13:00:09;;;;;;;2.80;1.70;;;;;;;;;;5060195;28;20194;-85
2021/04/16 13:02:37;;;;;;;2.60;2.40;;;;;;;;;;5060021;28;20726;-85
2021/04/16 13:05:09;;;;;;;2.28;2.05;;;;;;;;;;5058893;28;20214;-85
2021/04/16 13:07:37;;;;;;;3.63;1.88;;;;;;;;;;5056811;28;20253;-85
2021/04/16 13:10:07;;;;;;;2.30;1.95;;;;;;;;;;5060398;28;20186;-86
2021/04/16 13:12:34;;;;;;;3.03;2.45;;;;;;;;;;5058993;28;20934;-85
2021/04/16 13:15:01;;;;;;;2.22;1.83;;;;;;;;;;5061108;28;20201;-85
2021/04/16 13:17:30;;;;;;;2.53;2.25;;;;;;;;;;5054455;28;20197;-85
2021/04/16 13:19:58;;;;;;;2.40;2.20;;;;;;;;;;5058831;28;20198;-85
2021/04/16 13:22:27;;;;;;;4.15;2.30;;;;;;;;;;5059337;28;20300;-85
2021/04/16 13:24:55;;;;;;;3.03;2.20;;;;;;;;;;5060903;28;20182;-86
2021/04/16 13:27:29;;;;;;;2.63;2.22;;;;;;;;;;5058440;28;20687;-85
2021/04/16 13:29:56;;;;;;;3.28;2.13;;;;;;;;;;5060094;28;20564;-85
2021/04/16 13:32:27;;;;;;;2.25;2.00;;;;;;;;;;5070879;28;20215;-85
2021/04/16 13:34:58;;;;;;;2.17;1.95;;;;;;;;;;5071099;28;20217;-85
2021/04/16 13:37:31;;;;;;;2.15;2.00;;;;;;;;;;5070702;28;20204;-85
2021/04/16 13:40:01;;;;;;;1.83;1.70;;;;;;;;;;5071492;28;20201;-85
2021/04/16 13:42:27;;;;;;;1.65;1.30;;;;;;;;;;5076281;28;20216;-85
2021/04/16 13:44:54;;;;;;;1.88;1.73;;;;;;;;;;5070890;28;20730;-86
2021/04/16 13:47:25;;;;;;;1.52;1.42;;;;;;;;;;5070777;28;20204;-86
2021/04/16 13:49:53;;;;;;;1.70;1.60;;;;;;;;;;5071072;28;20204;-85
2021/04/16 13:52:21;;;;;;;1.98;1.88;;;;;;;;;;5070885;28;20225;-85
2021/04/16 13:54:48;;;;;;;1.60;1.50;;;;;;;;;;5071187;28;20225;-85
2021/04/16 13:57:17;;;;;;;2.38;1.60;;;;;;;;;;5070800;28;20201;-85
2021/04/16 13:59:45;;;;;;;1.73;1.38;;;;;;;;;;5071236;28;20205;-85
2021/04/16 14:02:14;;;;;;;1.45;1.35;;;;;;;;;;5070817;28;20217;-85
2021/04/16 14:04:43;;;;;;;2.50;2.15;;;;;;;;;;5070853;28;20205;-85
2021/04/16 14:07:10;;;;;;;1.67;1.58;;;;;;;;;;5070413;28;20197;-85
2021/04/16 14:09:38;;;;;;;1.65;1.55;;;;;;;;;;5070376;28;20259;-85
2021/04/16 14:12:07;;;;;;;2.58;1.73;;;;;;;;;;5070203;28;20212;-85
2021/04/16 14:14:34;;;;;;;1.60;1.50;;;;;;;;;;5070543;28;20217;-85
2021/04/16 14:17:04;;;;;;;2.45;1.40;;;;;;;;;;5070300;28;20204;-86
2021/04/16 14:19:46;;;;;;;2.00;1.50;;;;;;;;;;5070092;28;20201;-85
2021/04/16 14:22:15;;;;;;;1.50;1.40;;;;;;;;;;5070338;28;20240;-85
2021/04/16 14:24:43;;;;;;;2.17;1.70;;;;;;;;;;5070502;28;20205;-85
2021/04/16 14:27:11;;;;;;;1.70;1.60;;;;;;;;;;5069983;28;20590;-85
2021/04/16 14:29:38;;;;;;;3.17;1.67;;;;;;;;;;5070195;28;20205;-85
2021/04/16 14:32:05;;;;;;;2.42;1.98;;;;;;;;;;5070120;28;20228;-85
2021/04/16 14:34:35;;;;;;;2.08;1.98;;;;;;;;;;5070167;28;20694;-86
2021/04/16 14:37:02;;;;;;;2.20;2.10;;;;;;;;;;5069993;28;20227;-85
2021/04/16 14:39:29;;;;;;;3.30;2.45;;;;;;;;;;5070474;28;20250;-85
2021/04/16 14:41:58;;;;;;;1.83;1.70;;;;;;;;;;5070795;28;20298;-85
2021/04/16 14:44:25;;;;;;;2.58;2.25;;;;;;;;;;5070425;28;20217;-85
2021/04/16 14:46:53;;;;;;;1.70;1.60;;;;;;;;;;5069593;28;20205;-85
2021/04/16 14:49:22;;;;;;;2.75;1.65;;;;;;;;;;5070321;28;20208;-85
2021/04/16 14:51:49;;;;;;;1.98;1.77;;;;;;;;;;5070176;28;20221;-85
2021/04/16 14:54:26;;;;;;;2.40;1.50;;;;;;;;;;5069626;28;20695;-85
2021/04/16 14:56:54;;;;;;;2.17;1.83;;;;;;;;;;5069738;28;20207;-85
2021/04/16 14:59:28;;;;;;;1.88;1.65;;;;;;;;;;5069819;28;20215;-85
2021/04/16 15:01:56;;;;;;;1.92;1.45;;;;;;;;;;5070791;28;20220;-86
2021/04/16 15:04:23;;;;;;;2.25;1.95;;;;;;;;;;5070652;28;20228;-85
2021/04/16 15:06:54;;;;;;;1.30;1.20;;;;;;;;;;5069979;28;20208;-85
2021/04/16 15:09:22;;;;;;;1.40;1.30;;;;;;;;;;5069718;28;20205;-84
2021/04/16 15:11:51;;;;;;;1.80;1.25;;;;;;;;;;5070247;28;20227;-85
2021/04/16 15:14:22;;;;;;;1.17;1.15;;;;;;;;;;5069688;28;20217;-85
2021/04/16 15:16:52;;;;;;;1.75;1.60;;;;;;;;;;5069536;28;20201;-85
2021/04/16 15:19:37;;;;;;;1.70;1.60;;;;;;;;;;5069894;28;20193;-85
2021/04/16 15:22:07;;;;;;;1.58;1.42;;;;;;;;;;5072661;28;20225;-85
2021/04/16 15:24:36;;;;;;;1.73;1.63;;;;;;;;;;5073643;28;20204;-85
2021/04/16 15:27:04;;;;;;;3.15;2.00;;;;;;;;;;5073621;28;20576;-85
2021/04/16 15:29:34;;;;;;;2.00;1.85;;;;;;;;;;5073653;28;20594;-85
2021/04/16 15:32:02;;;;;;;2.05;1.85;;;;;;;;;;5073605;28;20213;-85
2021/04/16 15:48:07;;;;;;;2.67;1.90;;;;;;;;;;5073840;28;20196;-85
2021/04/16 15:50:39;;;;;;;2.40;2.20;;;;;;;;;;5073237;28;20212;-85
2021/04/16 15:53:08;;;;;;;2.65;2.30;;;;;;;;;;5072681;28;20235;-85
2021/04/16 15:55:35;;;;;;;2.80;2.60;;;;;;;;;;5072499;28;20224;-85
2021/04/16 15:58:04;;;;;;;4.47;2.10;;;;;;;;;;5072547;28;20567;-85
2021/04/16 16:00:38;;;;;;;2.40;2.20;;;;;;;;;;5072924;28;20197;-85
2021/04/16 16:03:07;;;;;;;2.17;2.03;;;;;;;;;;5073053;28;20232;-85
2021/04/16 16:05:34;;;;;;;3.72;1.77;;;;;;;;;;5072759;28;20208;-86
2021/04/16 16:08:01;;;;;;;3.63;2.50;;;;;;;;;;5072733;28;20634;-83
2021/04/16 16:10:29;;;;;;;2.35;2.15;;;;;;;;;;5073015;28;20205;-83
2021/04/16 16:12:58;;;;;;;1.88;1.75;;;;;;;;;;5073655;28;20216;-83
2021/04/16 16:15:31;;;;;;;2.13;1.92;;;;;;;;;;5073018;28;20216;-83
2021/04/16 16:18:00;;;;;;;1.73;1.63;;;;;;;;;;5074306;28;20201;-85
2021/04/16 16:20:30;;;;;;;2.13;1.83;;;;;;;;;;5073124;28;20276;-85
2021/04/16 16:22:57;;;;;;;2.67;2.05;;;;;;;;;;5073667;28;20278;-85
2021/04/16 16:25:24;;;;;;;3.15;1.95;;;;;;;;;;5072727;28;20208;-85
2021/04/16 16:27:52;;;;;;;1.60;1.50;;;;;;;;;;5072693;28;20687;-85
2021/04/16 16:30:23;;;;;;;1.52;1.42;;;;;;;;;;5073015;28;20202;-85
2021/04/16 16:32:50;;;;;;;2.35;2.15;;;;;;;;;;5072366;28;20228;-85
2021/04/16 16:35:22;;;;;;;3.05;2.20;;;;;;;;;;5072729;28;20288;-85
2021/04/16 16:37:50;;;;;;;1.98;1.77;;;;;;;;;;5073397;28;20212;-85
2021/04/16 16:40:21;;;;;;;1.40;1.30;;;;;;;;;;5072865;28;20196;-86
2021/04/16 16:42:51;;;;;;;1.90;1.80;;;;;;;;;;5073104;28;20217;-85
2021/04/16 16:45:21;;;;;;;1.75;1.50;;;;;;;;;;5072365;28;20233;-85
2021/04/16 16:47:49;;;;;;;1.60;1.50;;;;;;;;;;5072915;28;20201;-85
2021/04/16 16:50:19;;;;;;;1.50;1.40;;;;;;;;;;5072668;28;20204;-85
2021/04/16 16:52:46;;;;;;;1.63;1.52;;;;;;;;;;5071800;28;20213;-85
2021/04/16 16:55:15;;;;;;;1.20;1.17;;;;;;;;;;5072160;28;20221;-86
2021/04/16 16:57:42;;;;;;;2.10;1.90;;;;;;;;;;5072084;28;20238;-85
2021/04/16 17:00:13;;;;;;;1.73;1.45;;;;;;;;;;5067562;28;20238;-85
2021/04/16 17:02:40;;;;;;;2.35;2.08;;;;;;;;;;5054167;28;20225;-84
2021/04/16 17:05:10;;;;;;;4.03;2.97;;;;;;;;;;5051472;28;20205;-85
2021/04/16 17:07:37;;;;;;;1.83;1.52;;;;;;;;;;5051987;28;20274;-84
2021/04/16 17:10:06;;;;;;;2.17;1.92;;;;;;;;;;5053186;28;20205;-85
2021/04/16 17:12:34;;;;;;;2.30;2.10;;;;;;;;;;5051852;28;20218;-85
2021/04/16 17:15:04;;;;;;;2.17;1.98;;;;;;;;;;5051928;28;20226;-85
2021/04/16 17:17:31;;;;;;;1.60;1.50;;;;;;;;;;5051920;28;20232;-85
2021/04/16 17:19:58;;;;;;;1.75;1.65;;;;;;;;;;5052099;28;20324;-85
2021/04/16 17:22:25;;;;;;;2.10;1.50;;;;;;;;;;5052555;28;20228;-85
2021/04/16 17:24:52;;;;;;;2.72;1.90;;;;;;;;;;5054906;28;20182;-85
2021/04/16 17:27:26;;;;;;;1.85;1.75;;;;;;;;;;5054136;28;20204;-84
2021/04/16 17:29:54;;;;;;;3.05;1.90;;;;;;;;;;5059958;28;20178;-85
2021/04/16 17:32:22;;;;;;;1.98;1.73;;;;;;;;;;5059254;28;20711;-84